Philippe Billard

Philippe Billard

Statistiques 2017

  • Nb de partants : 560
  • Nb de victoires : 75
  • Nb de places : 179
  • Écart gagnant : 50
  • Réussite à la gagne : 13%
  • Réussite à la place : 32%
Musique : 8a Dm Da 4m 3a 0a 0a 0a 7a 3a 7a 8a 9a 4a Da 7m 2a Da
ChevalDernière courseCoursesVictoiresR. à la gagnePlacésR. à la place
Bariane James 10/12/17 32 5 16% 13 41%
Divine Beji 10/12/17 21 2 10% 6 29%
Lover Face 09/12/17 31 9 29% 14 45%
Quarter Of An Hour 08/12/17 36 6 17% 12 33%
Cerenzo Turbo 07/12/17 29 7 24% 15 52%
Romi Mms 07/12/17 44 18 41% 29 66%
Specialess 07/12/17 46 9 20% 18 39%
Enamorada 03/12/17 0 0 - 0 -
Classic Way 02/12/17 29 7 24% 12 41%
Tessy d'Ete 02/12/17 30 6 20% 14 47%
Tentation Ans 02/12/17 31 6 19% 13 42%
Tano Fohle Sm 02/12/17 21 6 29% 12 57%
Elemine de Valforg 02/12/17 12 1 8% 4 33%
Etoile des Yedrag 02/12/17 8 1 13% 4 50%
Fast des Brousses 01/12/17 6 1 17% 4 67%
Elusive Feeling 30/11/17 11 2 18% 4 36%
Eagle 29/11/17 15 3 20% 5 33%
Emphasis Turbo 29/11/17 12 3 25% 7 58%
King Sir Kir 29/11/17 23 3 13% 11 48%
Super Fez 29/11/17 43 14 33% 24 56%
Defi Dream 28/11/17 13 3 23% 5 38%
Calizza Boko 28/11/17 18 9 50% 14 78%
Stoneisle Lilian 28/11/17 20 6 30% 8 40%
Bora Beji 27/11/17 49 6 12% 17 35%
Funny Joke 27/11/17 4 1 25% 1 25%
Elena Princesse 25/11/17 14 1 7% 4 29%
El Catwalk 25/11/17 27 5 19% 12 44%
Bahia Beji 23/11/17 41 7 17% 16 39%
Tell Me No Lies 20/11/17 56 6 11% 26 46%
Perkins Grif 20/11/17 59 6 10% 15 25%
Ultra Wind Bi 19/11/17 20 8 40% 12 60%
Epice Turgot 19/11/17 13 3 23% 5 38%
Do You Love Me 17/11/17 19 2 11% 7 37%
Schubert 17/11/17 37 8 22% 20 54%
Velite du Goutier 16/11/17 63 10 16% 26 41%
Clever Lymm 16/11/17 22 1 5% 12 55%
Ceyra de Bellouet 14/11/17 35 5 14% 11 31%
Encore A Deux 13/11/17 6 3 50% 4 67%
Arazi Boko 13/11/17 74 11 15% 35 47%
Cash Gamble 13/11/17 29 15 52% 20 69%
Voice Dream 12/11/17 68 9 13% 25 37%
Dream Shot 11/11/17 19 3 16% 5 26%
Etat d'Esprit 05/11/17 0 0 - 0 -
Timone Ek 01/11/17 33 18 55% 25 76%
Elevation 31/10/17 14 1 7% 2 14%
Verbalisee 25/10/17 55 6 11% 16 29%
Shogun D.K. 11/10/17 32 2 6% 12 38%
French Turgot 28/09/17 3 0 - 1 33%
Speed Delicious 21/09/17 44 7 16% 17 39%
Pascia'Lest 09/09/17 63 17 27% 34 54%
En poursuivant votre navigation sur ce site, vous acceptez nos CGU et l'utilisation de cookies afin de réaliser des statistiques d'audiences et vous proposer une navigation optimale, la possibilité de partager des contenus sur des réseaux sociaux ainsi que des services et offres adaptés à vos centres d'intérêts.
Pour en savoir plus et paramétrer les cookies...